Time;durP1;ratioP1;P1;durP2;ratioP2;P2;SDS_P1;SDS_P2;PMS_P1;PMS_P2;Temp;Humidity;BMP_temperature;BMP_pressure;BME280_temperature;BME280_humidity;BME280_pressure;Samples;Min_cycle;Max_cycle;Signal;HPM_P1;HPM_P2
2021/07/17 00:01:27;;;;;;;23.38;8.50;;;18.30;90.80;;;;;;5054479;28;20108;-70
2021/07/17 00:03:53;;;;;;;21.92;8.02;;;18.30;90.80;;;;;;5053246;28;20056;-70
2021/07/17 00:06:18;;;;;;;24.20;8.30;;;18.30;90.90;;;;;;5054237;28;20072;-70
2021/07/17 00:08:46;;;;;;;20.13;8.68;;;18.30;90.90;;;;;;5036724;28;20025;-70
2021/07/17 00:11:12;;;;;;;27.52;9.63;;;18.30;91.20;;;;;;5054434;28;20017;-70
2021/07/17 00:13:37;;;;;;;22.52;8.38;;;18.30;90.90;;;;;;5054414;28;20029;-70
2021/07/17 00:16:03;;;;;;;23.27;8.88;;;18.20;91.00;;;;;;5053996;28;20098;-70
2021/07/17 00:18:29;;;;;;;21.73;8.45;;;18.20;91.00;;;;;;5053238;28;20055;-70
2021/07/17 00:20:55;;;;;;;17.23;8.23;;;18.20;91.00;;;;;;5054104;28;20489;-70
2021/07/17 00:23:20;;;;;;;21.27;8.57;;;18.20;91.10;;;;;;5054101;28;20036;-70
2021/07/17 00:25:53;;;;;;;19.40;7.78;;;18.20;91.10;;;;;;5054067;28;20033;-70
2021/07/17 00:28:19;;;;;;;24.60;10.05;;;18.20;91.10;;;;;;5053274;28;20204;-70
2021/07/17 00:30:46;;;;;;;23.95;9.35;;;18.20;91.10;;;;;;5052893;28;20041;-70
2021/07/17 00:33:11;;;;;;;24.67;8.68;;;18.20;91.20;;;;;;5052409;28;20431;-70
2021/07/17 00:35:37;;;;;;;28.95;9.63;;;18.20;91.20;;;;;;5052853;28;20041;-70
2021/07/17 00:38:03;;;;;;;20.42;8.60;;;18.10;91.20;;;;;;5036099;28;20442;-70
2021/07/17 00:40:29;;;;;;;21.58;9.40;;;18.10;91.20;;;;;;5052776;28;20052;-70
2021/07/17 00:42:55;;;;;;;20.75;8.80;;;18.10;91.60;;;;;;5052285;28;20473;-70
2021/07/17 00:45:21;;;;;;;21.52;8.15;;;18.10;91.30;;;;;;5053979;28;20036;-70
2021/07/17 00:47:47;;;;;;;28.23;9.50;;;18.10;91.30;;;;;;5053726;28;20477;-70
2021/07/17 00:50:16;;;;;;;19.90;7.97;;;18.10;91.30;;;;;;5053803;28;20100;-70
2021/07/17 00:52:42;;;;;;;24.85;9.07;;;18.10;91.30;;;;;;5053414;28;20025;-69
2021/07/17 00:55:09;;;;;;;23.77;9.05;;;18.10;91.30;;;;;;5053895;28;20112;-70
2021/07/17 00:57:37;;;;;;;20.15;8.02;;;18.10;91.30;;;;;;5053518;28;20080;-70
2021/07/17 01:00:08;;;;;;;19.40;8.65;;;18.10;91.30;;;;;;5053875;28;20067;-69
2021/07/17 01:02:45;;;;;;;19.42;7.55;;;18.10;91.30;;;;;;5052017;28;20032;-70
2021/07/17 01:05:11;;;;;;;22.08;7.35;;;18.10;91.30;;;;;;5052073;28;20101;-69
2021/07/17 01:07:38;;;;;;;23.30;8.45;;;18.10;91.30;;;;;;5053749;28;20033;-69
2021/07/17 01:10:06;;;;;;;21.95;9.05;;;18.00;91.30;;;;;;5052348;28;20029;-69
2021/07/17 01:12:32;;;;;;;23.80;8.23;;;18.10;91.30;;;;;;5053255;28;20035;-69
2021/07/17 01:14:58;;;;;;;25.55;9.10;;;18.00;91.30;;;;;;5053553;28;20100;-70
2021/07/17 01:17:23;;;;;;;28.45;9.90;;;18.00;91.30;;;;;;5035422;28;20384;-70
2021/07/17 01:19:49;;;;;;;26.60;9.80;;;18.00;91.40;;;;;;5052554;28;20036;-69
2021/07/17 01:22:15;;;;;;;21.52;8.93;;;18.00;91.30;;;;;;5035463;28;20029;-69
2021/07/17 01:24:43;;;;;;;26.88;9.35;;;18.00;91.30;;;;;;5053446;28;20025;-70
2021/07/17 01:27:11;;;;;;;26.25;8.98;;;17.90;91.30;;;;;;5053111;28;20033;-74
2021/07/17 01:29:38;;;;;;;25.02;8.43;;;17.90;91.40;;;;;;5053403;28;20140;-75
2021/07/17 01:32:04;;;;;;;21.20;8.85;;;17.90;91.40;;;;;;5053497;28;20442;-75
2021/07/17 01:34:30;;;;;;;23.60;9.75;;;17.90;91.30;;;;;;5053138;28;20025;-74
2021/07/17 01:36:55;;;;;;;29.13;9.07;;;17.90;91.30;;;;;;5054174;28;20083;-75
2021/07/17 01:39:22;;;;;;;19.67;8.02;;;17.90;91.30;;;;;;5055675;28;20037;-75
2021/07/17 01:41:48;;;;;;;21.58;8.07;;;17.90;91.30;;;;;;5057243;28;20028;-75
2021/07/17 01:44:14;;;;;;;21.90;8.68;;;17.90;91.30;;;;;;5056039;28;20041;-75
2021/07/17 01:46:39;;;;;;;18.02;8.20;;;17.90;91.30;;;;;;5056747;28;20086;-74
2021/07/17 01:49:05;;;;;;;17.83;8.85;;;17.90;91.30;;;;;;5056847;28;20115;-75
2021/07/17 01:51:30;;;;;;;19.83;8.95;;;17.90;91.30;;;;;;5055740;28;20123;-75
2021/07/17 01:53:57;;;;;;;18.75;8.25;;;17.80;91.30;;;;;;5055483;28;20048;-75
2021/07/17 01:56:25;;;;;;;17.08;8.70;;;17.80;91.30;;;;;;5055519;28;20118;-75
2021/07/17 01:58:50;;;;;;;22.00;8.68;;;17.80;91.30;;;;;;5056487;28;20099;-75
2021/07/17 02:01:16;;;;;;;21.65;8.55;;;17.80;91.30;;;;;;5056524;28;20065;-75
2021/07/17 02:03:46;;;;;;;22.60;8.73;;;17.80;91.30;;;;;;5056512;28;20377;-75
2021/07/17 02:06:12;;;;;;;17.83;8.45;;;17.80;91.30;;;;;;5056319;28;20037;-75
2021/07/17 02:08:41;;;;;;;22.48;8.02;;;17.80;91.30;;;;;;5056381;28;20049;-75
2021/07/17 02:11:08;;;;;;;25.77;7.75;;;17.80;91.30;;;;;;5056717;28;20048;-75
2021/07/17 02:13:34;;;;;;;21.00;7.72;;;17.80;91.30;;;;;;5056532;28;20071;-75
2021/07/17 02:16:00;;;;;;;18.05;8.23;;;17.70;91.30;;;;;;5055033;28;20032;-74
2021/07/17 02:18:31;;;;;;;20.58;8.30;;;17.70;91.30;;;;;;5056754;28;20029;-75
2021/07/17 02:21:07;;;;;;;17.63;7.85;;;17.70;91.30;;;;;;5055990;28;20036;-74
2021/07/17 02:23:36;;;;;;;21.67;8.68;;;17.70;91.30;;;;;;5055964;28;20053;-74
2021/07/17 02:26:03;;;;;;;24.10;8.90;;;17.70;91.30;;;;;;5056102;28;20029;-74
2021/07/17 02:28:28;;;;;;;21.65;9.07;;;17.60;91.40;;;;;;5056294;28;20025;-75
2021/07/17 02:30:54;;;;;;;22.98;9.40;;;17.60;91.40;;;;;;5038066;28;20028;-75
2021/07/17 02:33:20;;;;;;;21.65;8.93;;;17.60;91.50;;;;;;5055984;28;20469;-75
2021/07/17 02:35:46;;;;;;;21.35;7.85;;;17.60;91.50;;;;;;5056467;28;20033;-75
2021/07/17 02:38:12;;;;;;;18.67;8.82;;;17.60;91.60;;;;;;5054813;28;20036;-75
2021/07/17 02:40:38;;;;;;;22.92;9.77;;;17.60;91.60;;;;;;5055970;28;20033;-75
2021/07/17 02:43:04;;;;;;;22.98;8.40;;;17.60;91.60;;;;;;5054876;28;20515;-75
2021/07/17 02:45:30;;;;;;;24.60;8.63;;;17.60;91.70;;;;;;5054684;28;20167;-74
2021/07/17 02:47:56;;;;;;;19.27;7.85;;;17.60;91.70;;;;;;5054497;28;20509;-74
2021/07/17 02:50:22;;;;;;;22.55;7.70;;;17.60;91.70;;;;;;5055973;28;20108;-74
2021/07/17 02:52:47;;;;;;;25.02;7.68;;;17.60;91.70;;;;;;5054606;28;20025;-75
2021/07/17 02:55:14;;;;;;;25.45;9.18;;;17.60;91.80;;;;;;5055410;28;20052;-75
2021/07/17 02:57:40;;;;;;;31.08;10.05;;;17.60;91.90;;;;;;5038514;28;20422;-75
2021/07/17 03:00:08;;;;;;;28.35;9.65;;;17.60;91.90;;;;;;5055743;28;20067;-75
2021/07/17 03:02:34;;;;;;;23.90;8.88;;;17.60;91.90;;;;;;5054518;28;20420;-74
2021/07/17 03:05:00;;;;;;;22.60;9.25;;;17.60;91.90;;;;;;5055360;28;20044;-75
2021/07/17 03:07:25;;;;;;;22.33;9.00;;;17.60;91.90;;;;;;5054061;28;20100;-74
2021/07/17 03:09:51;;;;;;;20.90;9.40;;;17.60;91.90;;;;;;5054442;28;20055;-75
2021/07/17 03:12:17;;;;;;;22.13;8.85;;;17.60;92.00;;;;;;5053924;28;20075;-75
2021/07/17 03:14:42;;;;;;;24.08;8.32;;;17.50;92.00;;;;;;5055017;28;20040;-74
2021/07/17 03:17:08;;;;;;;25.40;9.00;;;17.50;92.00;;;;;;5053925;28;20074;-74
2021/07/17 03:19:34;;;;;;;28.20;9.32;;;17.50;92.10;;;;;;5037281;28;20032;-75
2021/07/17 03:22:00;;;;;;;25.65;9.20;;;17.50;92.10;;;;;;5037650;28;20025;-75
2021/07/17 03:24:25;;;;;;;29.50;9.82;;;17.40;92.10;;;;;;5055198;28;20036;-75
2021/07/17 03:26:51;;;;;;;26.40;9.02;;;17.40;92.20;;;;;;5053703;28;20044;-75
2021/07/17 03:29:17;;;;;;;26.00;9.27;;;17.40;92.20;;;;;;5053652;28;20029;-75
2021/07/17 03:31:43;;;;;;;24.08;8.63;;;17.30;92.20;;;;;;5054737;28;20373;-74
2021/07/17 03:34:09;;;;;;;27.83;9.85;;;17.30;92.20;;;;;;5053705;28;20071;-75
2021/07/17 03:36:34;;;;;;;23.52;8.65;;;17.20;92.20;;;;;;5054698;28;20064;-75
2021/07/17 03:39:00;;;;;;;25.45;8.13;;;17.20;92.20;;;;;;5054660;28;20048;-74
2021/07/17 03:41:26;;;;;;;25.73;8.98;;;17.20;92.30;;;;;;5053842;28;20047;-75
2021/07/17 03:43:51;;;;;;;22.35;8.27;;;17.10;92.30;;;;;;5054786;28;20056;-75
2021/07/17 03:46:17;;;;;;;23.90;8.35;;;17.00;92.30;;;;;;5053516;28;20108;-75
2021/07/17 03:48:43;;;;;;;19.40;8.68;;;17.00;92.40;;;;;;5053347;28;20025;-75
2021/07/17 03:51:08;;;;;;;19.35;8.25;;;16.90;92.40;;;;;;5053184;28;20021;-75
2021/07/17 03:53:34;;;;;;;29.92;8.73;;;16.90;92.50;;;;;;5052830;28;20045;-75
2021/07/17 03:56:00;;;;;;;24.95;8.73;;;16.90;92.60;;;;;;5054223;28;20059;-75
2021/07/17 03:58:26;;;;;;;27.17;9.27;;;16.80;92.60;;;;;;5054177;28;20029;-75
2021/07/17 04:00:51;;;;;;;24.38;9.15;;;16.80;92.70;;;;;;5049570;28;20041;-74
2021/07/17 04:03:17;;;;;;;25.25;9.45;;;16.80;92.80;;;;;;5034078;28;20033;-75
2021/07/17 04:05:42;;;;;;;26.17;8.88;;;16.70;92.80;;;;;;5034899;28;20033;-75
2021/07/17 04:08:08;;;;;;;23.98;9.35;;;16.70;92.90;;;;;;5052845;28;20184;-75
2021/07/17 04:10:34;;;;;;;24.38;8.90;;;16.70;93.00;;;;;;5052113;28;20017;-74
2021/07/17 04:13:03;;;;;;;28.38;10.05;;;16.70;93.10;;;;;;5054215;28;20024;-75
2021/07/17 04:15:28;;;;;;;25.88;9.75;;;16.60;93.10;;;;;;5053002;28;20079;-75
2021/07/17 04:17:54;;;;;;;26.67;10.30;;;16.60;93.20;;;;;;5053653;28;20508;-74
2021/07/17 04:20:20;;;;;;;22.15;9.85;;;16.60;93.30;;;;;;5052330;28;20064;-74
2021/07/17 04:22:46;;;;;;;31.17;9.45;;;16.60;93.50;;;;;;5053892;28;20040;-74
2021/07/17 04:25:12;;;;;;;26.42;10.05;;;16.50;93.70;;;;;;5053644;28;20029;-75
2021/07/17 04:27:37;;;;;;;28.75;10.63;;;16.50;93.50;;;;;;5054162;28;20036;-74
2021/07/17 04:30:04;;;;;;;25.05;9.80;;;16.60;93.60;;;;;;5053878;28;20029;-74
2021/07/17 04:32:30;;;;;;;25.02;9.73;;;16.60;93.60;;;;;;5052401;28;20029;-74
2021/07/17 04:34:55;;;;;;;34.28;10.10;;;16.50;93.60;;;;;;5052250;28;20408;-75
2021/07/17 04:37:21;;;;;;;33.65;10.85;;;16.50;93.70;;;;;;5053997;28;20339;-74
2021/07/17 04:39:49;;;;;;;31.77;10.10;;;16.50;93.70;;;;;;5053586;28;20036;-75
2021/07/17 04:42:16;;;;;;;23.42;9.18;;;16.60;93.80;;;;;;5053885;28;20087;-75
2021/07/17 04:44:42;;;;;;;24.88;10.18;;;16.50;93.80;;;;;;5053653;28;20043;-74
2021/07/17 04:47:08;;;;;;;28.50;10.27;;;16.60;93.90;;;;;;5052658;28;20071;-75
2021/07/17 04:49:33;;;;;;;28.63;9.45;;;16.50;93.80;;;;;;5052424;28;20061;-75
2021/07/17 04:51:59;;;;;;;26.88;11.07;;;16.60;93.90;;;;;;5052623;28;20021;-74
2021/07/17 04:54:25;;;;;;;26.05;9.90;;;16.50;93.90;;;;;;5053269;28;20044;-75
2021/07/17 04:56:50;;;;;;;22.60;9.70;;;16.50;93.90;;;;;;5053917;28;20048;-75
2021/07/17 04:59:16;;;;;;;23.98;9.25;;;16.50;94.00;;;;;;5052031;28;20570;-74
2021/07/17 05:01:42;;;;;;;21.15;8.60;;;16.60;94.10;;;;;;5052287;28;20033;-75
2021/07/17 05:04:07;;;;;;;31.45;10.23;;;16.60;94.10;;;;;;5053610;28;20025;-74
2021/07/17 05:06:33;;;;;;;28.58;8.52;;;16.60;94.10;;;;;;5053254;28;20025;-75
2021/07/17 05:08:59;;;;;;;22.77;8.60;;;16.60;94.10;;;;;;5052370;28;20370;-75
2021/07/17 05:11:25;;;;;;;24.05;8.73;;;16.60;94.10;;;;;;5050931;28;20045;-75
2021/07/17 05:13:50;;;;;;;23.80;8.55;;;16.60;94.20;;;;;;5050756;28;20443;-74
2021/07/17 05:16:16;;;;;;;22.42;9.05;;;16.70;94.30;;;;;;5050597;28;20067;-69
2021/07/17 05:18:42;;;;;;;25.58;9.82;;;16.70;94.30;;;;;;5033695;28;20044;-70
2021/07/17 05:21:07;;;;;;;26.48;10.65;;;16.70;94.30;;;;;;5051536;28;20108;-69
2021/07/17 05:23:33;;;;;;;18.13;7.93;;;16.70;94.30;;;;;;5033557;28;20060;-70
2021/07/17 05:25:58;;;;;;;23.23;8.57;;;16.70;94.30;;;;;;5051466;28;20474;-69
2021/07/17 05:28:24;;;;;;;20.15;9.73;;;16.70;94.30;;;;;;5051422;28;20096;-69
2021/07/17 05:30:50;;;;;;;22.52;9.55;;;16.70;94.40;;;;;;5051320;28;20178;-69
2021/07/17 05:33:17;;;;;;;23.33;8.48;;;16.70;94.40;;;;;;5049973;28;20021;-70
2021/07/17 05:35:42;;;;;;;19.38;7.78;;;16.70;94.40;;;;;;5051684;28;20025;-70
2021/07/17 05:38:08;;;;;;;25.77;8.65;;;16.80;94.50;;;;;;5034894;28;20055;-70
2021/07/17 05:40:34;;;;;;;21.30;8.70;;;16.80;94.50;;;;;;5052927;28;20040;-69
2021/07/17 05:43:00;;;;;;;21.60;8.52;;;16.80;94.50;;;;;;5052707;28;20040;-70
2021/07/17 05:45:26;;;;;;;18.05;9.00;;;16.80;94.50;;;;;;5052707;28;20086;-70
2021/07/17 05:47:51;;;;;;;20.80;9.77;;;16.90;94.50;;;;;;5051554;28;20091;-70
2021/07/17 05:50:19;;;;;;;25.52;9.63;;;16.80;94.50;;;;;;5044088;28;20022;-69
2021/07/17 05:52:45;;;;;;;20.83;8.60;;;16.90;94.50;;;;;;5036451;28;20028;-69
2021/07/17 05:55:11;;;;;;;20.38;8.57;;;16.90;94.50;;;;;;5038568;28;20371;-70
2021/07/17 05:57:37;;;;;;;26.75;9.35;;;16.90;94.50;;;;;;5043221;28;20033;-69
2021/07/17 06:00:07;;;;;;;25.08;9.73;;;17.00;94.60;;;;;;5022922;28;20029;-69
2021/07/17 06:02:33;;;;;;;18.30;7.28;;;17.00;94.70;;;;;;5047045;28;20023;-69
2021/07/17 06:04:59;;;;;;;16.58;7.85;;;17.10;94.60;;;;;;5041779;28;20121;-74
2021/07/17 06:07:25;;;;;;;20.73;8.50;;;17.10;94.60;;;;;;5037284;28;20037;-75
2021/07/17 06:09:50;;;;;;;26.02;9.15;;;17.20;94.60;;;;;;5056889;28;20025;-75
2021/07/17 06:12:16;;;;;;;19.98;8.40;;;17.20;94.60;;;;;;5034004;28;20060;-75
2021/07/17 06:14:42;;;;;;;21.10;7.43;;;17.30;94.60;;;;;;5051570;28;20032;-75
2021/07/17 06:17:11;;;;;;;16.48;6.93;;;17.30;94.60;;;;;;5052840;28;20056;-70
2021/07/17 06:19:40;;;;;;;21.27;7.38;;;17.30;94.50;;;;;;5051564;28;20446;-74
2021/07/17 06:22:06;;;;;;;22.27;7.70;;;17.40;94.50;;;;;;5058171;28;20033;-75
2021/07/17 06:24:32;;;;;;;14.85;6.18;;;17.40;94.50;;;;;;5056537;28;20036;-75
2021/07/17 06:26:57;;;;;;;16.45;6.88;;;17.40;94.50;;;;;;5064300;28;20354;-74
2021/07/17 06:29:23;;;;;;;16.02;6.40;;;17.50;94.50;;;;;;5065540;28;20083;-69
2021/07/17 06:31:48;;;;;;;25.95;7.20;;;17.50;94.50;;;;;;5072981;28;20039;-69
2021/07/17 06:34:15;;;;;;;22.85;8.20;;;17.60;94.50;;;;;;5055938;28;20037;-70
2021/07/17 06:36:40;;;;;;;21.65;6.82;;;17.60;94.50;;;;;;5055087;28;20425;-70
2021/07/17 06:39:06;;;;;;;17.50;6.18;;;17.60;94.50;;;;;;5055873;28;20065;-69
2021/07/17 06:41:32;;;;;;;17.20;5.82;;;17.60;94.50;;;;;;5054753;28;20063;-69
2021/07/17 06:43:57;;;;;;;15.43;5.90;;;17.70;94.50;;;;;;5055759;28;20029;-70
2021/07/17 06:46:23;;;;;;;13.25;5.32;;;17.80;94.50;;;;;;5055555;28;20065;-69
2021/07/17 06:48:49;;;;;;;13.38;4.72;;;17.80;94.50;;;;;;5055912;28;20031;-69
2021/07/17 06:51:14;;;;;;;14.15;5.28;;;17.90;94.50;;;;;;5055801;28;20032;-70
2021/07/17 06:53:40;;;;;;;15.32;5.05;;;18.00;94.40;;;;;;5038110;28;20032;-70
2021/07/17 06:56:06;;;;;;;19.35;5.22;;;18.00;94.10;;;;;;5054889;28;20683;-69
2021/07/17 06:58:31;;;;;;;14.50;4.15;;;18.10;94.00;;;;;;5064918;28;20060;-70
2021/07/17 07:00:57;;;;;;;12.57;4.40;;;18.10;93.90;;;;;;5064619;28;20021;-69
2021/07/17 07:03:23;;;;;;;12.10;4.00;;;18.20;93.70;;;;;;5058324;28;20025;-70
2021/07/17 07:05:49;;;;;;;15.98;4.32;;;18.20;93.60;;;;;;5045446;28;20391;-69
2021/07/17 07:08:15;;;;;;;14.55;4.10;;;18.20;93.50;;;;;;5065496;28;20017;-69
2021/07/17 07:10:41;;;;;;;12.73;4.05;;;18.20;93.30;;;;;;5059204;28;20016;-69
2021/07/17 07:13:11;;;;;;;14.35;4.13;;;18.30;93.30;;;;;;5055386;28;20029;-69
2021/07/17 07:15:36;;;;;;;14.70;4.97;;;18.30;93.20;;;;;;5055124;28;20017;-69
2021/07/17 07:18:03;;;;;;;16.40;4.70;;;18.30;93.10;;;;;;5054900;28;20074;-70
2021/07/17 07:20:29;;;;;;;18.17;4.50;;;18.40;93.10;;;;;;5053655;28;20037;-71
2021/07/17 07:22:55;;;;;;;14.30;4.40;;;18.40;92.90;;;;;;5053776;28;20037;-70
2021/07/17 07:25:20;;;;;;;12.77;4.00;;;18.40;92.90;;;;;;5053493;28;20037;-70
2021/07/17 07:27:47;;;;;;;12.90;4.57;;;18.50;92.90;;;;;;5052592;28;20051;-70
2021/07/17 07:30:14;;;;;;;10.18;4.00;;;18.50;92.80;;;;;;5053557;28;20040;-71
2021/07/17 07:32:40;;;;;;;13.82;4.30;;;18.60;92.80;;;;;;5053385;28;20083;-70
2021/07/17 07:35:06;;;;;;;17.48;4.30;;;18.60;92.70;;;;;;5052785;28;20033;-71
2021/07/17 07:37:31;;;;;;;14.18;3.67;;;18.60;92.50;;;;;;5054414;28;20025;-71
2021/07/17 07:39:57;;;;;;;9.75;3.78;;;18.70;92.50;;;;;;5054449;28;20120;-70
2021/07/17 07:42:23;;;;;;;10.30;3.72;;;18.70;92.40;;;;;;5053103;28;20029;-68
2021/07/17 07:44:50;;;;;;;7.85;3.38;;;18.80;92.40;;;;;;5053311;28;20029;-68
2021/07/17 07:47:16;;;;;;;9.98;3.40;;;18.80;92.40;;;;;;5053166;28;20029;-70
2021/07/17 07:49:42;;;;;;;11.80;3.88;;;18.90;92.30;;;;;;5055271;28;20102;-70
2021/07/17 07:52:10;;;;;;;11.38;3.38;;;19.00;92.30;;;;;;5064704;28;20036;-70
2021/07/17 07:54:36;;;;;;;8.80;3.40;;;19.00;92.20;;;;;;5072829;28;20045;-70
2021/07/17 07:57:01;;;;;;;9.43;3.40;;;19.10;92.30;;;;;;5074395;28;20103;-71
2021/07/17 07:59:27;;;;;;;9.10;3.22;;;19.20;92.20;;;;;;5073956;28;20032;-71
2021/07/17 08:01:52;;;;;;;9.55;2.75;;;19.20;91.90;;;;;;5072822;28;20055;-70
2021/07/17 08:04:18;;;;;;;9.43;2.90;;;19.30;91.80;;;;;;5073953;28;20473;-70
2021/07/17 08:06:44;;;;;;;8.30;3.30;;;19.30;91.70;;;;;;5061699;28;20121;-70
2021/07/17 08:09:09;;;;;;;8.95;3.42;;;19.40;91.40;;;;;;5052869;28;20554;-70
2021/07/17 08:11:35;;;;;;;9.80;2.97;;;19.50;91.10;;;;;;5052831;28;20029;-70
2021/07/17 08:14:00;;;;;;;9.65;3.10;;;19.50;90.90;;;;;;5052730;28;20033;-69
2021/07/17 08:16:26;;;;;;;8.40;2.65;;;19.60;90.70;;;;;;5053866;28;20492;-69
2021/07/17 08:18:52;;;;;;;7.35;2.65;;;19.60;90.60;;;;;;5053753;28;20055;-69
2021/07/17 08:21:17;;;;;;;9.80;2.83;;;19.70;90.10;;;;;;5053559;28;20377;-69
2021/07/17 08:23:45;;;;;;;7.30;2.03;;;19.80;90.10;;;;;;5035933;28;20024;-69
2021/07/17 08:26:11;;;;;;;7.00;2.22;;;19.80;89.50;;;;;;5052336;28;20033;-75
2021/07/17 08:28:37;;;;;;;7.68;2.40;;;19.90;89.60;;;;;;5052351;28;20033;-76
2021/07/17 08:31:02;;;;;;;8.73;2.03;;;19.90;88.90;;;;;;5052360;28;20448;-76
2021/07/17 08:33:28;;;;;;;10.88;1.98;;;20.00;88.00;;;;;;5052398;28;20491;-74
2021/07/17 08:35:53;;;;;;;8.02;2.08;;;20.10;88.10;;;;;;5035747;28;20060;-75
2021/07/17 08:38:19;;;;;;;6.03;1.83;;;20.20;88.20;;;;;;5053378;28;20362;-75
2021/07/17 08:40:52;;;;;;;5.93;1.85;;;20.30;87.90;;;;;;5035671;28;20392;-76
2021/07/17 08:43:17;;;;;;;6.03;1.27;;;20.40;87.40;;;;;;5053370;28;20056;-75
2021/07/17 08:45:44;;;;;;;6.00;1.40;;;20.50;86.50;;;;;;5052589;28;20465;-76
2021/07/17 08:48:11;;;;;;;4.95;1.50;;;20.50;86.30;;;;;;5035638;28;20025;-76
2021/07/17 08:50:37;;;;;;;4.88;1.55;;;20.60;86.10;;;;;;5060193;28;20111;-76
2021/07/17 08:53:03;;;;;;;6.93;1.55;;;20.70;86.20;;;;;;5073164;28;20028;-76
2021/07/17 08:55:29;;;;;;;6.57;1.10;;;20.80;85.90;;;;;;5072914;28;20055;-75
2021/07/17 08:57:55;;;;;;;5.57;1.35;;;20.90;85.40;;;;;;5070562;28;20056;-76
2021/07/17 09:00:24;;;;;;;6.40;1.48;;;20.90;84.50;;;;;;5044251;28;20033;-77
2021/07/17 09:02:57;;;;;;;5.55;1.05;;;21.00;83.20;;;;;;5053570;28;20051;-75
2021/07/17 09:05:27;;;;;;;4.90;1.00;;;21.10;82.30;;;;;;5053354;28;20078;-76
2021/07/17 09:07:56;;;;;;;5.25;1.30;;;21.20;82.00;;;;;;5061821;28;20025;-77
2021/07/17 09:10:41;;;;;;;4.80;0.90;;;21.30;81.80;;;;;;5065045;28;20029;-78
2021/07/17 09:13:20;;;;;;;4.35;1.05;;;21.40;81.50;;;;;;5065434;28;20440;-77
2021/07/17 09:15:58;;;;;;;4.85;1.10;;;21.40;81.40;;;;;;5072193;28;20101;-77
2021/07/17 09:18:28;;;;;;;6.38;1.10;;;21.50;80.70;;;;;;5073276;28;20035;-77
2021/07/17 09:21:04;;;;;;;5.07;1.00;;;21.60;80.20;;;;;;5073330;28;20051;-76
2021/07/17 09:23:34;;;;;;;4.38;1.00;;;21.70;79.60;;;;;;5073479;28;20087;-77
2021/07/17 09:26:01;;;;;;;4.68;1.08;;;21.70;79.50;;;;;;5072058;28;20440;-77
2021/07/17 09:28:29;;;;;;;3.85;0.98;;;21.90;79.30;;;;;;5056031;28;20028;-77
2021/07/17 09:30:58;;;;;;;6.80;1.15;;;21.90;78.80;;;;;;5073604;28;20060;-77
2021/07/17 09:33:25;;;;;;;5.70;1.02;;;22.00;78.40;;;;;;5073592;28;20029;-76
2021/07/17 09:35:53;;;;;;;4.32;1.35;;;22.10;78.30;;;;;;5072775;28;20099;-77
2021/07/17 09:38:20;;;;;;;6.95;1.17;;;22.20;77.90;;;;;;5071620;28;20115;-78
2021/07/17 09:40:56;;;;;;;7.30;0.80;;;22.30;77.40;;;;;;5073057;28;20032;-77
2021/07/17 09:43:30;;;;;;;4.82;0.70;;;22.40;76.20;;;;;;5072821;28;20411;-77
2021/07/17 09:45:56;;;;;;;4.82;0.70;;;22.40;75.90;;;;;;5073072;28;20047;-78
2021/07/17 09:48:29;;;;;;;3.22;0.88;;;22.50;75.60;;;;;;5073168;28;20020;-77
2021/07/17 09:50:56;;;;;;;4.53;1.00;;;22.60;75.20;;;;;;5071839;28;20433;-77
2021/07/17 09:53:39;;;;;;;4.30;0.90;;;22.70;74.30;;;;;;5066823;28;20069;-78
2021/07/17 09:56:09;;;;;;;5.38;0.80;;;22.80;74.00;;;;;;5051647;28;20053;-77
2021/07/17 09:58:38;;;;;;;4.15;0.70;;;22.90;74.20;;;;;;5055142;28;20370;-78
2021/07/17 10:01:15;;;;;;;4.82;1.00;;;22.90;73.90;;;;;;5057099;28;20116;-78
2021/07/17 10:03:41;;;;;;;7.55;1.10;;;23.00;73.50;;;;;;5076605;28;20036;-78
2021/07/17 10:06:08;;;;;;;3.83;0.70;;;23.10;72.90;;;;;;5074980;28;20036;-77
2021/07/17 10:08:35;;;;;;;2.60;0.70;;;23.20;73.10;;;;;;5076307;28;20039;-78
2021/07/17 10:11:10;;;;;;;3.58;0.60;;;23.30;73.00;;;;;;5075599;28;20028;-77
2021/07/17 10:13:39;;;;;;;3.92;0.80;;;23.30;72.50;;;;;;5076355;28;20062;-78
2021/07/17 10:16:22;;;;;;;5.90;0.88;;;23.40;72.20;;;;;;5061503;28;20033;-77
2021/07/17 10:18:49;;;;;;;5.53;0.73;;;23.50;71.40;;;;;;5056401;28;20033;-80
2021/07/17 10:21:15;;;;;;;2.63;0.60;;;23.50;71.00;;;;;;5038765;28;20060;-78
2021/07/17 10:23:42;;;;;;;4.28;0.70;;;23.70;70.90;;;;;;5056471;28;20447;-77
2021/07/17 10:26:09;;;;;;;4.22;0.80;;;23.70;70.10;;;;;;5056347;28;20108;-80
2021/07/17 10:28:35;;;;;;;4.07;1.00;;;23.80;69.70;;;;;;5056450;28;20017;-79
2021/07/17 10:31:01;;;;;;;4.43;0.70;;;23.90;69.30;;;;;;5064023;28;20427;-79
2021/07/17 10:33:31;;;;;;;3.45;0.82;;;24.00;69.10;;;;;;5073651;28;20029;-78
2021/07/17 10:35:59;;;;;;;3.00;0.50;;;24.20;69.20;;;;;;5076639;28;20024;-78
2021/07/17 10:38:25;;;;;;;4.95;0.98;;;24.20;69.20;;;;;;5074968;28;20361;-75
2021/07/17 10:40:53;;;;;;;6.10;0.60;;;24.30;69.40;;;;;;5071851;28;20030;-79
2021/07/17 10:43:20;;;;;;;3.28;0.70;;;24.40;69.40;;;;;;5076187;28;20507;-79
2021/07/17 10:45:45;;;;;;;4.60;0.60;;;24.50;69.10;;;;;;5072998;28;20085;-77
2021/07/17 10:48:32;;;;;;;5.90;0.60;;;24.60;68.90;;;;;;5073181;28;20028;-78
2021/07/17 10:51:01;;;;;;;4.18;0.57;;;24.80;68.00;;;;;;5073031;28;20021;-78
2021/07/17 10:53:49;;;;;;;2.63;0.60;;;25.00;68.20;;;;;;5075403;28;20024;-78
2021/07/17 10:56:42;;;;;;;2.60;0.43;;;25.20;67.10;;;;;;5075507;28;20419;-79
2021/07/17 10:59:11;;;;;;;2.88;0.50;;;25.40;66.40;;;;;;5075225;28;20399;-79
2021/07/17 11:02:00;;;;;;;3.30;0.60;;;25.60;66.70;;;;;;5074544;28;20025;-79
2021/07/17 11:04:44;;;;;;;2.42;0.50;;;25.80;65.40;;;;;;5074089;28;20169;-80
2021/07/17 11:07:19;;;;;;;2.78;0.40;;;25.90;65.50;;;;;;5075174;28;20085;-78
2021/07/17 11:09:54;;;;;;;4.07;0.90;;;26.10;65.20;;;;;;5072857;28;20029;-81
2021/07/17 11:12:28;;;;;;;2.45;0.50;;;26.20;64.90;;;;;;5073791;28;20024;-82
2021/07/17 11:14:54;;;;;;;;;;;26.50;64.70;;;;;;5075741;28;20020;-82
2021/07/17 11:17:45;;;;;;;4.47;0.60;;;26.60;64.50;;;;;;5073867;28;19916;-81
2021/07/17 11:20:30;;;;;;;3.28;0.50;;;26.90;64.10;;;;;;5073721;28;20016;-82
2021/07/17 11:23:16;;;;;;;1.38;0.40;;;27.00;63.20;;;;;;5074867;28;20029;-80
2021/07/17 11:25:53;;;;;;;1.15;0.38;;;27.20;61.90;;;;;;5073259;28;20024;-80
2021/07/17 11:28:43;;;;;;;3.47;0.70;;;27.50;61.70;;;;;;5073345;28;20057;-81
2021/07/17 11:31:27;;;;;;;1.88;0.50;;;27.60;60.80;;;;;;5073316;28;20101;-78
2021/07/17 11:34:14;;;;;;;2.55;0.50;;;27.90;60.30;;;;;;5073255;28;20028;-80
2021/07/17 11:36:43;;;;;;;1.63;0.40;;;28.10;59.70;;;;;;5073326;28;20025;-79
2021/07/17 11:39:11;;;;;;;2.03;0.50;;;28.30;60.50;;;;;;5074437;28;20035;-78
2021/07/17 11:41:37;;;;;;;2.92;0.40;;;28.50;59.10;;;;;;5073178;28;20021;-82
2021/07/17 11:44:04;;;;;;;3.40;0.60;;;28.70;58.60;;;;;;5073210;28;20175;-78
2021/07/17 11:46:30;;;;;;;2.00;0.47;;;28.90;58.00;;;;;;5073105;28;20123;-80
2021/07/17 11:49:06;;;;;;;1.58;0.50;;;29.10;57.80;;;;;;5073075;28;20046;-80
2021/07/17 11:51:33;;;;;;;2.97;0.70;;;29.40;56.80;;;;;;5073021;28;20412;-78
2021/07/17 11:54:01;;;;;;;2.50;0.55;;;29.60;56.80;;;;;;5074180;28;20031;-78
2021/07/17 11:56:27;;;;;;;2.22;0.70;;;29.80;56.10;;;;;;5056315;28;20025;-79
2021/07/17 11:59:22;;;;;;;3.35;0.68;;;30.00;55.70;;;;;;5074336;28;20464;-79
2021/07/17 12:02:18;;;;;;;4.05;0.55;;;30.30;54.60;;;;;;5068682;28;20140;-80
2021/07/17 12:04:43;;;;;;;1.75;0.50;;;30.40;54.30;;;;;;5072151;28;20039;-81
2021/07/17 12:07:12;;;;;;;4.07;0.60;;;30.70;54.80;;;;;;5073855;28;20032;-79
2021/07/17 12:09:46;;;;;;;3.42;0.60;;;30.90;54.30;;;;;;5073816;28;20356;-79
2021/07/17 12:12:13;;;;;;;2.63;0.50;;;31.10;53.80;;;;;;5073794;28;20013;-79
2021/07/17 12:14:39;;;;;;;2.17;0.55;;;31.30;53.50;;;;;;5073751;28;20330;-78
2021/07/17 12:17:05;;;;;;;2.38;0.60;;;31.50;53.00;;;;;;5072381;28;20032;-79
2021/07/17 12:19:30;;;;;;;4.78;0.93;;;31.60;52.40;;;;;;5055791;28;20111;-76
2021/07/17 12:21:57;;;;;;;3.00;0.68;;;31.80;52.00;;;;;;5055937;28;20484;-80
2021/07/17 12:24:22;;;;;;;2.67;0.50;;;31.90;51.50;;;;;;5072509;28;20027;-79
2021/07/17 12:26:48;;;;;;;2.88;0.57;;;32.10;51.10;;;;;;5072467;28;20028;-76
2021/07/17 12:29:13;;;;;;;3.67;0.80;;;32.20;50.80;;;;;;5072418;28;20469;-76
2021/07/17 12:31:54;;;;;;;4.25;0.70;;;32.40;50.60;;;;;;5055552;28;20504;-76
2021/07/17 12:34:19;;;;;;;2.10;0.50;;;32.60;50.20;;;;;;5073583;28;20024;-76
2021/07/17 12:36:45;;;;;;;3.33;0.60;;;32.70;49.70;;;;;;5055496;28;20342;-76
2021/07/17 12:39:14;;;;;;;1.55;0.40;;;32.80;49.00;;;;;;5072031;28;20086;-76
2021/07/17 12:41:40;;;;;;;2.85;0.60;;;32.90;48.60;;;;;;5055845;28;20079;-76
2021/07/17 12:44:08;;;;;;;4.35;0.90;;;33.20;48.20;;;;;;5073305;28;20472;-76